ITY94 LIPX-LICC
Flight info
| Callsign | ITY94 |
|---|---|
| Flight time | 1h 14m |
| Altitude | 37000 |
| Route | ITEFE T558 LUMAV DCT DIPVO DCT INTUD DCT MALOG DCT PELEN DCT UXUTA DCT LIBRO |
| Aircraft | A21N/M-SDE2E3FGHIRWXY/LB1 |
Departure
| Time | 2026-04-22 19:31 |
|---|---|
| Airport | Verona Villafranca Valerio Catullo Airport (LIPX) |
Arrival
| Time | 2026-04-22 20:45 |
|---|---|
| Airport | Catania-Fontanarossa Airport (LICC) |
| Time | Latitude | Longitude | Altitude | Speed | Heading |
|---|---|---|---|---|---|
| 2026-04-22 19:22 | 45.40275 | 10.90550 | 240 ft | 0 kts | 135° |
| 2026-04-22 19:26 | 45.40281 | 10.90542 | 240 ft | 4 kts | 135° |
| 2026-04-22 19:26 | 45.40299 | 10.90515 | 240 ft | 4 kts | 112° |
| 2026-04-22 19:26 | 45.40300 | 10.90483 | 240 ft | 4 kts | 56° |
| 2026-04-22 19:27 | 45.40288 | 10.90463 | 240 ft | 1 kts | 45° |
| 2026-04-22 19:27 | 45.40286 | 10.90460 | 240 ft | 0 kts | 45° |
| 2026-04-22 19:28 | 45.40297 | 10.90475 | 240 ft | 5 kts | 45° |
| 2026-04-22 19:28 | 45.40331 | 10.90525 | 240 ft | 9 kts | 45° |
| 2026-04-22 19:28 | 45.40385 | 10.90604 | 240 ft | 13 kts | 45° |
| 2026-04-22 19:28 | 45.40459 | 10.90708 | 240 ft | 16 kts | 40° |
| 2026-04-22 19:29 | 45.40550 | 10.90717 | 240 ft | 13 kts | 333° |
| 2026-04-22 19:29 | 45.40626 | 10.90627 | 240 ft | 15 kts | 305° |
| 2026-04-22 19:29 | 45.40637 | 10.90510 | 241 ft | 13 kts | 262° |
| 2026-04-22 19:29 | 45.40606 | 10.90368 | 240 ft | 17 kts | 231° |
| 2026-04-22 19:30 | 45.40499 | 10.90211 | 240 ft | 54 kts | 226° |
| 2026-04-22 19:30 | 45.39879 | 10.89302 | 240 ft | 139 kts | 225° |
| 2026-04-22 19:30 | 45.39074 | 10.88160 | 359 ft | 178 kts | 224° |
| 2026-04-22 19:30 | 45.38177 | 10.86868 | 817 ft | 182 kts | 225° |
| 2026-04-22 19:31 | 45.37326 | 10.85610 | 1717 ft | 173 kts | 224° |
| 2026-04-22 19:31 | 45.36291 | 10.84695 | 2273 ft | 187 kts | 188° |
| 2026-04-22 19:31 | 45.34973 | 10.85112 | 2537 ft | 210 kts | 143° |
| 2026-04-22 19:31 | 45.34075 | 10.86855 | 2937 ft | 231 kts | 113° |
| 2026-04-22 19:32 | 45.33580 | 10.89140 | 3483 ft | 251 kts | 101° |
| 2026-04-22 19:32 | 45.33131 | 10.91554 | 4301 ft | 258 kts | 112° |
| 2026-04-22 19:32 | 45.32288 | 10.93812 | 5297 ft | 260 kts | 122° |
| 2026-04-22 19:32 | 45.31215 | 10.95896 | 6235 ft | 262 kts | 127° |
| 2026-04-22 19:33 | 45.30004 | 10.97864 | 7075 ft | 266 kts | 130° |
| 2026-04-22 19:33 | 45.28715 | 10.99797 | 7832 ft | 273 kts | 131° |
| 2026-04-22 19:33 | 45.27374 | 11.01759 | 8588 ft | 280 kts | 131° |
| 2026-04-22 19:33 | 45.26007 | 11.03768 | 9374 ft | 286 kts | 130° |
| 2026-04-22 19:34 | 45.24622 | 11.05837 | 10160 ft | 292 kts | 129° |
| 2026-04-22 19:34 | 45.23205 | 11.07989 | 10655 ft | 309 kts | 129° |
| 2026-04-22 19:34 | 45.21695 | 11.10314 | 10969 ft | 331 kts | 129° |
| 2026-04-22 19:34 | 45.20096 | 11.12790 | 11384 ft | 347 kts | 129° |
| 2026-04-22 19:35 | 45.18436 | 11.15356 | 11988 ft | 358 kts | 130° |
| 2026-04-22 19:35 | 45.16734 | 11.17984 | 12391 ft | 375 kts | 130° |
| 2026-04-22 19:35 | 45.15527 | 11.19843 | 12700 ft | 384 kts | 130° |
| 2026-04-22 19:35 | 45.13098 | 11.23576 | 13591 ft | 392 kts | 130° |
| 2026-04-22 19:36 | 45.11145 | 11.26317 | 14273 ft | 398 kts | 135° |
| 2026-04-22 19:36 | 45.09068 | 11.28958 | 14887 ft | 404 kts | 137° |
| 2026-04-22 19:36 | 45.06916 | 11.31561 | 15495 ft | 409 kts | 138° |
| 2026-04-22 19:36 | 45.04718 | 11.34157 | 16097 ft | 414 kts | 138° |
| 2026-04-22 19:37 | 45.02484 | 11.36776 | 16708 ft | 419 kts | 138° |
| 2026-04-22 19:37 | 45.00233 | 11.39419 | 17279 ft | 424 kts | 138° |
| 2026-04-22 19:37 | 44.97981 | 11.42073 | 17843 ft | 428 kts | 138° |
| 2026-04-22 19:37 | 44.95683 | 11.44790 | 18413 ft | 433 kts | 138° |
| 2026-04-22 19:38 | 44.93368 | 11.47533 | 18893 ft | 437 kts | 138° |
| 2026-04-22 19:38 | 44.91021 | 11.50314 | 19374 ft | 442 kts | 138° |
| 2026-04-22 19:38 | 44.88646 | 11.53127 | 19794 ft | 448 kts | 138° |
| 2026-04-22 19:38 | 44.86250 | 11.55962 | 20266 ft | 451 kts | 138° |
| 2026-04-22 19:39 | 44.83802 | 11.58788 | 20751 ft | 456 kts | 141° |
| 2026-04-22 19:39 | 44.81128 | 11.61256 | 21212 ft | 462 kts | 150° |
| 2026-04-22 19:39 | 44.78216 | 11.63219 | 21680 ft | 466 kts | 156° |
| 2026-04-22 19:39 | 44.75191 | 11.64957 | 22124 ft | 471 kts | 159° |
| 2026-04-22 19:40 | 44.72149 | 11.66544 | 22571 ft | 475 kts | 160° |
| 2026-04-22 19:40 | 44.69023 | 11.68098 | 23017 ft | 478 kts | 161° |
| 2026-04-22 19:40 | 44.65865 | 11.69644 | 23448 ft | 482 kts | 161° |
| 2026-04-22 19:40 | 44.62688 | 11.71202 | 23857 ft | 486 kts | 161° |
| 2026-04-22 19:41 | 44.59490 | 11.72782 | 24180 ft | 489 kts | 161° |
| 2026-04-22 19:41 | 44.56265 | 11.74389 | 24473 ft | 494 kts | 162° |
| 2026-04-22 19:41 | 44.53015 | 11.76016 | 24766 ft | 498 kts | 162° |
| 2026-04-22 19:41 | 44.49740 | 11.77662 | 25092 ft | 501 kts | 162° |
| 2026-04-22 19:42 | 44.46445 | 11.79319 | 25420 ft | 504 kts | 162° |
| 2026-04-22 19:42 | 44.43131 | 11.80985 | 25722 ft | 507 kts | 162° |
| 2026-04-22 19:42 | 44.39828 | 11.82644 | 26055 ft | 510 kts | 162° |
| 2026-04-22 19:42 | 44.36494 | 11.84317 | 26419 ft | 511 kts | 163° |
| 2026-04-22 19:43 | 44.29761 | 11.87684 | 27091 ft | 514 kts | 164° |
| 2026-04-22 19:43 | 44.26389 | 11.89367 | 27471 ft | 515 kts | 164° |
| 2026-04-22 19:43 | 44.23013 | 11.91050 | 27833 ft | 516 kts | 164° |
| 2026-04-22 19:44 | 44.19627 | 11.92736 | 28176 ft | 517 kts | 164° |
| 2026-04-22 19:44 | 44.16233 | 11.94423 | 28497 ft | 518 kts | 165° |
| 2026-04-22 19:44 | 44.12821 | 11.96117 | 28870 ft | 518 kts | 165° |
| 2026-04-22 19:44 | 44.09456 | 11.97786 | 29230 ft | 518 kts | 165° |
| 2026-04-22 19:45 | 44.07170 | 11.98919 | 29493 ft | 518 kts | 165° |
| 2026-04-22 19:45 | 44.02666 | 12.01148 | 29911 ft | 520 kts | 165° |
| 2026-04-22 19:45 | 43.99262 | 12.02829 | 30206 ft | 521 kts | 165° |
| 2026-04-22 19:45 | 43.95839 | 12.04518 | 30431 ft | 522 kts | 166° |
| 2026-04-22 19:46 | 43.92404 | 12.06211 | 30640 ft | 524 kts | 166° |
| 2026-04-22 19:46 | 43.88966 | 12.07904 | 30973 ft | 522 kts | 166° |
| 2026-04-22 19:46 | 43.85553 | 12.09584 | 31395 ft | 519 kts | 166° |
| 2026-04-22 19:46 | 43.82160 | 12.11254 | 31801 ft | 516 kts | 166° |
| 2026-04-22 19:47 | 43.78785 | 12.12912 | 32140 ft | 514 kts | 166° |
| 2026-04-22 19:47 | 43.75414 | 12.14565 | 32415 ft | 513 kts | 166° |
| 2026-04-22 19:47 | 43.73186 | 12.15655 | 32590 ft | 513 kts | 166° |
| 2026-04-22 19:47 | 43.68686 | 12.17855 | 32998 ft | 511 kts | 166° |
| 2026-04-22 19:48 | 43.65339 | 12.19490 | 33307 ft | 509 kts | 166° |
| 2026-04-22 19:48 | 43.61992 | 12.21081 | 33575 ft | 506 kts | 168° |
| 2026-04-22 19:48 | 43.58622 | 12.22463 | 33801 ft | 504 kts | 171° |
| 2026-04-22 19:48 | 43.55237 | 12.23705 | 33998 ft | 502 kts | 172° |
| 2026-04-22 19:49 | 43.51857 | 12.24884 | 34276 ft | 500 kts | 172° |
| 2026-04-22 19:49 | 43.48523 | 12.26035 | 34481 ft | 499 kts | 172° |
| 2026-04-22 19:49 | 43.45156 | 12.27205 | 34656 ft | 499 kts | 172° |
| 2026-04-22 19:49 | 43.41783 | 12.28394 | 34839 ft | 499 kts | 172° |
| 2026-04-22 19:50 | 43.38417 | 12.29591 | 35000 ft | 499 kts | 171° |
| 2026-04-22 19:50 | 43.35056 | 12.30796 | 35124 ft | 499 kts | 171° |
| 2026-04-22 19:50 | 43.28311 | 12.33225 | 35165 ft | 500 kts | 171° |
| 2026-04-22 19:51 | 43.21577 | 12.35653 | 35161 ft | 499 kts | 171° |
| 2026-04-22 19:51 | 43.15528 | 12.37826 | 35133 ft | 500 kts | 171° |
| 2026-04-22 19:52 | 43.08833 | 12.40222 | 35157 ft | 499 kts | 172° |
| 2026-04-22 19:52 | 43.02108 | 12.42625 | 35158 ft | 499 kts | 172° |
| 2026-04-22 19:53 | 42.95388 | 12.45019 | 35154 ft | 499 kts | 172° |
| 2026-04-22 19:53 | 42.93917 | 12.45543 | 35137 ft | 499 kts | 172° |
| 2026-04-22 19:54 | 42.93600 | 12.45656 | 35140 ft | 499 kts | 172° |
| 2026-04-22 19:54 | 42.86254 | 12.48266 | 35155 ft | 499 kts | 172° |
| 2026-04-22 19:55 | 42.80654 | 12.50250 | 35146 ft | 499 kts | 172° |
| 2026-04-22 19:55 | 42.73932 | 12.52627 | 35110 ft | 499 kts | 171° |
| 2026-04-22 19:56 | 42.67226 | 12.54997 | 35138 ft | 496 kts | 171° |
| 2026-04-22 19:56 | 42.60541 | 12.57352 | 35129 ft | 495 kts | 171° |
| 2026-04-22 19:57 | 42.53897 | 12.59686 | 35123 ft | 496 kts | 171° |
| 2026-04-22 19:57 | 42.47244 | 12.62139 | 35109 ft | 498 kts | 166° |
| 2026-04-22 19:58 | 42.40698 | 12.65319 | 35110 ft | 499 kts | 164° |
| 2026-04-22 19:58 | 42.34228 | 12.68626 | 35102 ft | 500 kts | 164° |
| 2026-04-22 19:59 | 42.30978 | 12.70302 | 35207 ft | 500 kts | 163° |
| 2026-04-22 20:00 | 42.11526 | 12.80244 | 36114 ft | 498 kts | 164° |
| 2026-04-22 20:00 | 42.08290 | 12.81886 | 36279 ft | 497 kts | 164° |
| 2026-04-22 20:01 | 42.05101 | 12.83502 | 36446 ft | 496 kts | 164° |
| 2026-04-22 20:01 | 42.01872 | 12.85137 | 36589 ft | 495 kts | 164° |
| 2026-04-22 20:01 | 41.98652 | 12.86766 | 36690 ft | 495 kts | 164° |
| 2026-04-22 20:02 | 41.92175 | 12.90033 | 36744 ft | 498 kts | 164° |
| 2026-04-22 20:02 | 41.88923 | 12.91672 | 36863 ft | 499 kts | 164° |
| 2026-04-22 20:02 | 41.85667 | 12.93312 | 36974 ft | 498 kts | 164° |
| 2026-04-22 20:03 | 41.79222 | 12.96553 | 37088 ft | 499 kts | 164° |
| 2026-04-22 20:03 | 41.72870 | 12.99739 | 37084 ft | 499 kts | 164° |
| 2026-04-22 20:04 | 41.66367 | 13.02994 | 37077 ft | 499 kts | 164° |
| 2026-04-22 20:04 | 41.59869 | 13.06240 | 37085 ft | 497 kts | 164° |
| 2026-04-22 20:05 | 41.53391 | 13.09469 | 37093 ft | 497 kts | 164° |
| 2026-04-22 20:05 | 41.46907 | 13.12693 | 37089 ft | 497 kts | 164° |
| 2026-04-22 20:06 | 41.40472 | 13.15889 | 37077 ft | 494 kts | 165° |
| 2026-04-22 20:06 | 41.34038 | 13.19078 | 37076 ft | 492 kts | 165° |
| 2026-04-22 20:07 | 41.27609 | 13.22253 | 37080 ft | 492 kts | 165° |
| 2026-04-22 20:07 | 41.21184 | 13.25421 | 37048 ft | 492 kts | 165° |
| 2026-04-22 20:08 | 41.14777 | 13.28574 | 37074 ft | 490 kts | 165° |
| 2026-04-22 20:08 | 41.08431 | 13.31691 | 37071 ft | 490 kts | 165° |
| 2026-04-22 20:09 | 41.02033 | 13.34826 | 37072 ft | 490 kts | 165° |
| 2026-04-22 20:09 | 40.95639 | 13.37953 | 37069 ft | 489 kts | 164° |
| 2026-04-22 20:10 | 40.89252 | 13.41071 | 37072 ft | 489 kts | 164° |
| 2026-04-22 20:10 | 40.82859 | 13.44184 | 37072 ft | 489 kts | 164° |
| 2026-04-22 20:11 | 40.76467 | 13.47291 | 37042 ft | 489 kts | 164° |
| 2026-04-22 20:11 | 40.70090 | 13.50385 | 37085 ft | 488 kts | 165° |
| 2026-04-22 20:12 | 40.63747 | 13.53456 | 37068 ft | 488 kts | 165° |
| 2026-04-22 20:12 | 40.57350 | 13.56546 | 37067 ft | 488 kts | 165° |
| 2026-04-22 20:13 | 40.50946 | 13.59540 | 37059 ft | 485 kts | 167° |
| 2026-04-22 20:13 | 40.44571 | 13.62165 | 37065 ft | 482 kts | 168° |
| 2026-04-22 20:14 | 40.38151 | 13.64715 | 37060 ft | 482 kts | 168° |
| 2026-04-22 20:14 | 40.31736 | 13.67285 | 37058 ft | 482 kts | 168° |
| 2026-04-22 20:15 | 40.25326 | 13.69877 | 37063 ft | 481 kts | 168° |
| 2026-04-22 20:15 | 40.18922 | 13.72470 | 37065 ft | 481 kts | 168° |
| 2026-04-22 20:16 | 40.12525 | 13.75055 | 37063 ft | 481 kts | 168° |
| 2026-04-22 20:16 | 40.06162 | 13.77621 | 37055 ft | 480 kts | 168° |
| 2026-04-22 20:17 | 39.99784 | 13.80188 | 37058 ft | 479 kts | 168° |
| 2026-04-22 20:17 | 39.93416 | 13.82744 | 37059 ft | 479 kts | 168° |
| 2026-04-22 20:18 | 39.87045 | 13.85297 | 37057 ft | 479 kts | 168° |
| 2026-04-22 20:18 | 39.80674 | 13.87846 | 37056 ft | 479 kts | 168° |
| 2026-04-22 20:19 | 39.74332 | 13.90376 | 37057 ft | 480 kts | 168° |
| 2026-04-22 20:19 | 39.67950 | 13.92918 | 37054 ft | 480 kts | 168° |
| 2026-04-22 20:20 | 39.61567 | 13.95457 | 37037 ft | 479 kts | 168° |
| 2026-04-22 20:20 | 39.55198 | 13.97986 | 37053 ft | 478 kts | 168° |
| 2026-04-22 20:21 | 39.48826 | 14.00509 | 37051 ft | 478 kts | 168° |
| 2026-04-22 20:21 | 39.42459 | 14.03026 | 37048 ft | 478 kts | 168° |
| 2026-04-22 20:22 | 39.36093 | 14.05538 | 37050 ft | 478 kts | 168° |
| 2026-04-22 20:22 | 39.29740 | 14.08041 | 37044 ft | 477 kts | 168° |
| 2026-04-22 20:23 | 39.23427 | 14.10522 | 37043 ft | 477 kts | 168° |
| 2026-04-22 20:23 | 39.17074 | 14.13015 | 37046 ft | 477 kts | 168° |
| 2026-04-22 20:24 | 39.10734 | 14.15498 | 37046 ft | 475 kts | 168° |
| 2026-04-22 20:24 | 39.04404 | 14.17973 | 37045 ft | 474 kts | 168° |
| 2026-04-22 20:25 | 38.98128 | 14.20421 | 37044 ft | 474 kts | 168° |
| 2026-04-22 20:25 | 38.91807 | 14.22883 | 37028 ft | 474 kts | 169° |
| 2026-04-22 20:26 | 38.85513 | 14.25332 | 37047 ft | 471 kts | 169° |
| 2026-04-22 20:26 | 38.79224 | 14.27769 | 36706 ft | 472 kts | 169° |
| 2026-04-22 20:26 | 38.76076 | 14.28989 | 35931 ft | 473 kts | 169° |
| 2026-04-22 20:27 | 38.72901 | 14.30215 | 35043 ft | 478 kts | 169° |
| 2026-04-22 20:27 | 38.69705 | 14.31447 | 34191 ft | 482 kts | 168° |
| 2026-04-22 20:27 | 38.66520 | 14.32675 | 33244 ft | 486 kts | 169° |
| 2026-04-22 20:27 | 38.63279 | 14.33925 | 32387 ft | 487 kts | 168° |
| 2026-04-22 20:28 | 38.60030 | 14.35179 | 31546 ft | 489 kts | 168° |
| 2026-04-22 20:28 | 38.56768 | 14.36437 | 30692 ft | 490 kts | 168° |
| 2026-04-22 20:28 | 38.53492 | 14.37699 | 29798 ft | 492 kts | 168° |
| 2026-04-22 20:28 | 38.50197 | 14.38967 | 28769 ft | 494 kts | 168° |
| 2026-04-22 20:29 | 38.46887 | 14.40239 | 27702 ft | 497 kts | 168° |
| 2026-04-22 20:29 | 38.43569 | 14.41512 | 26655 ft | 499 kts | 167° |
| 2026-04-22 20:29 | 38.40230 | 14.42793 | 25607 ft | 502 kts | 167° |
| 2026-04-22 20:29 | 38.36917 | 14.44062 | 24576 ft | 505 kts | 167° |
| 2026-04-22 20:30 | 38.33594 | 14.45514 | 24105 ft | 504 kts | 160° |
| 2026-04-22 20:30 | 38.30375 | 14.47310 | 23865 ft | 506 kts | 160° |
| 2026-04-22 20:30 | 38.27145 | 14.49137 | 23386 ft | 507 kts | 159° |
| 2026-04-22 20:30 | 38.23947 | 14.51000 | 22668 ft | 500 kts | 159° |
| 2026-04-22 20:31 | 38.20847 | 14.52841 | 22383 ft | 483 kts | 158° |
| 2026-04-22 20:31 | 38.17854 | 14.54630 | 22125 ft | 467 kts | 158° |
| 2026-04-22 20:31 | 38.14963 | 14.56359 | 21874 ft | 452 kts | 158° |
| 2026-04-22 20:31 | 38.12161 | 14.58028 | 21618 ft | 438 kts | 158° |
| 2026-04-22 20:32 | 38.09472 | 14.59625 | 21334 ft | 426 kts | 159° |
| 2026-04-22 20:32 | 38.06792 | 14.61208 | 20766 ft | 423 kts | 159° |
| 2026-04-22 20:32 | 38.04128 | 14.62775 | 20153 ft | 421 kts | 159° |
| 2026-04-22 20:32 | 38.01466 | 14.64338 | 19490 ft | 422 kts | 158° |
| 2026-04-22 20:33 | 37.98826 | 14.65886 | 19161 ft | 412 kts | 159° |
| 2026-04-22 20:33 | 37.96177 | 14.67037 | 18910 ft | 395 kts | 172° |
| 2026-04-22 20:33 | 37.93517 | 14.67381 | 18676 ft | 375 kts | 188° |
| 2026-04-22 20:33 | 37.91019 | 14.66844 | 18448 ft | 354 kts | 204° |
| 2026-04-22 20:34 | 37.88783 | 14.65715 | 18211 ft | 339 kts | 211° |
| 2026-04-22 20:34 | 37.86717 | 14.64393 | 17939 ft | 327 kts | 214° |
| 2026-04-22 20:34 | 37.84772 | 14.62996 | 17681 ft | 316 kts | 216° |
| 2026-04-22 20:34 | 37.82909 | 14.61594 | 17422 ft | 307 kts | 217° |
| 2026-04-22 20:35 | 37.81096 | 14.60218 | 17154 ft | 299 kts | 217° |
| 2026-04-22 20:35 | 37.79332 | 14.58891 | 16887 ft | 292 kts | 217° |
| 2026-04-22 20:35 | 37.77587 | 14.57595 | 16642 ft | 290 kts | 217° |
| 2026-04-22 20:35 | 37.75842 | 14.56314 | 16395 ft | 290 kts | 216° |
| 2026-04-22 20:36 | 37.74091 | 14.55042 | 16125 ft | 289 kts | 215° |
| 2026-04-22 20:36 | 37.72370 | 14.53800 | 15875 ft | 288 kts | 215° |
| 2026-04-22 20:36 | 37.70629 | 14.52550 | 15632 ft | 287 kts | 215° |
| 2026-04-22 20:36 | 37.68896 | 14.51309 | 15385 ft | 286 kts | 215° |
| 2026-04-22 20:37 | 37.67169 | 14.50076 | 15144 ft | 284 kts | 215° |
| 2026-04-22 20:37 | 37.65448 | 14.48847 | 14902 ft | 283 kts | 214° |
| 2026-04-22 20:37 | 37.63742 | 14.47631 | 14661 ft | 282 kts | 213° |
| 2026-04-22 20:37 | 37.61858 | 14.46917 | 14413 ft | 290 kts | 184° |
| 2026-04-22 20:38 | 37.59896 | 14.47552 | 14173 ft | 298 kts | 150° |
| 2026-04-22 20:38 | 37.58317 | 14.49289 | 14029 ft | 304 kts | 136° |
| 2026-04-22 20:38 | 37.56841 | 14.51231 | 13511 ft | 309 kts | 136° |
| 2026-04-22 20:38 | 37.55320 | 14.53112 | 12953 ft | 311 kts | 139° |
| 2026-04-22 20:39 | 37.53713 | 14.54966 | 12103 ft | 317 kts | 140° |
| 2026-04-22 20:39 | 37.52015 | 14.56829 | 10884 ft | 331 kts | 141° |
| 2026-04-22 20:39 | 37.50205 | 14.58755 | 9393 ft | 349 kts | 141° |
| 2026-04-22 20:39 | 37.48305 | 14.60744 | 7954 ft | 360 kts | 141° |
| 2026-04-22 20:40 | 37.46394 | 14.62731 | 7183 ft | 349 kts | 141° |
| 2026-04-22 20:40 | 37.44586 | 14.64600 | 6845 ft | 325 kts | 142° |
| 2026-04-22 20:40 | 37.42946 | 14.66412 | 6457 ft | 306 kts | 127° |
| 2026-04-22 20:40 | 37.42059 | 14.68785 | 5651 ft | 300 kts | 96° |
| 2026-04-22 20:41 | 37.42251 | 14.71331 | 4926 ft | 290 kts | 69° |
| 2026-04-22 20:41 | 37.42935 | 14.73696 | 4192 ft | 286 kts | 69° |
| 2026-04-22 20:41 | 37.43527 | 14.76078 | 3629 ft | 282 kts | 74° |
| 2026-04-22 20:41 | 37.43974 | 14.78465 | 3211 ft | 278 kts | 78° |
| 2026-04-22 20:42 | 37.44312 | 14.80809 | 3036 ft | 265 kts | 80° |
| 2026-04-22 20:42 | 37.44580 | 14.83052 | 3022 ft | 256 kts | 81° |
| 2026-04-22 20:42 | 37.44812 | 14.85249 | 3021 ft | 256 kts | 82° |
| 2026-04-22 20:42 | 37.45026 | 14.87451 | 3029 ft | 244 kts | 82° |
| 2026-04-22 20:43 | 37.45217 | 14.89516 | 2674 ft | 239 kts | 83° |
| 2026-04-22 20:43 | 37.45404 | 14.91601 | 2235 ft | 239 kts | 83° |
| 2026-04-22 20:43 | 37.45586 | 14.93682 | 1990 ft | 238 kts | 84° |
| 2026-04-22 20:43 | 37.45764 | 14.95730 | 1528 ft | 233 kts | 84° |
| 2026-04-22 20:44 | 37.45936 | 14.97756 | 1338 ft | 226 kts | 84° |
| 2026-04-22 20:44 | 37.46097 | 14.99659 | 1091 ft | 213 kts | 84° |
| 2026-04-22 20:44 | 37.46250 | 15.01487 | 674 ft | 204 kts | 83° |
| 2026-04-22 20:44 | 37.46391 | 15.03186 | 548 ft | 187 kts | 83° |
| 2026-04-22 20:45 | 37.46479 | 15.04247 | 425 ft | 181 kts | 83° |
| 2026-04-22 20:45 | 37.46610 | 15.05822 | 91 ft | 179 kts | 83° |
| 2026-04-22 20:45 | 37.46721 | 15.07157 | 48 ft | 107 kts | 84° |
| 2026-04-22 20:45 | 37.46812 | 15.07680 | 54 ft | 30 kts | 59° |
| 2026-04-22 20:46 | 37.46898 | 15.07809 | 52 ft | 1 kts | 355° |
| 2026-04-22 20:46 | 37.46910 | 15.07804 | 52 ft | 2 kts | 336° |
| 2026-04-22 20:46 | 37.46925 | 15.07794 | 51 ft | 3 kts | 327° |
| 2026-04-22 20:47 | 37.46932 | 15.07779 | 55 ft | 2 kts | 293° |
| 2026-04-22 20:47 | 37.46936 | 15.07751 | 55 ft | 5 kts | 276° |
| 2026-04-22 20:47 | 37.46934 | 15.07703 | 55 ft | 7 kts | 264° |
| 2026-04-22 20:47 | 37.46927 | 15.07626 | 55 ft | 11 kts | 264° |
| 2026-04-22 20:48 | 37.46918 | 15.07520 | 50 ft | 14 kts | 264° |
| 2026-04-22 20:48 | 37.46908 | 15.07387 | 49 ft | 16 kts | 264° |
| 2026-04-22 20:48 | 37.46896 | 15.07238 | 49 ft | 18 kts | 264° |
| 2026-04-22 20:48 | 37.46882 | 15.07085 | 51 ft | 18 kts | 264° |
| 2026-04-22 20:49 | 37.46870 | 15.06930 | 54 ft | 18 kts | 263° |
| 2026-04-22 20:49 | 37.46855 | 15.06767 | 50 ft | 18 kts | 264° |
| 2026-04-22 20:49 | 37.46843 | 15.06625 | 54 ft | 13 kts | 263° |
| 2026-04-22 20:49 | 37.46853 | 15.06558 | 51 ft | 3 kts | 331° |
| 2026-04-22 20:50 | 37.46862 | 15.06556 | 53 ft | 1 kts | 356° |
| 2026-04-22 20:50 | 37.46869 | 15.06557 | 54 ft | 2 kts | 2° |
| 2026-04-22 20:50 | 37.46891 | 15.06558 | 50 ft | 4 kts | 9° |
| 2026-04-22 20:50 | 37.46925 | 15.06572 | 54 ft | 5 kts | 18° |
| 2026-04-22 20:51 | 37.46937 | 15.06577 | 54 ft | 0 kts | 18° |